Aeroporto :
LOGIN :

Iscrizione | Disclaimer

   EN    FR    IT 

 










Sommario :    VFR   VFR Marginale   IFR   IFR Intensivo   IFR Molto Intensivo
Visibilità : 
Base nubi : 
>= 8 km
>= 3000ft
5 / 8 km
1000 / 3000 ft
1500m / 5 km
500 / 1000 ft
800 / 1500m
200 / 500 ft
< 800m
< 200 ft
Simboli :   Temporali  Nebbia  Neve Forte  Precipitazioni Forti  Vento > 20 kt
SIGMETs :   Varie  Temporali  Ghiacco  Turbolenza  Onda orograficha  Ceneri Vulcaniche






- Altitudine del aeroporto : 117 ft
- Codice IATA : NWI


EGSH - Norwich

ULTIMO METAR :
  • 202050Z 26015KT CAVOK 04/M00 Q1014 NOSIG

METARs OBSOLETI :
  • 202020Z 26014KT CAVOK 05/00 Q1014 NOSIG
  • 201950Z 26016KT CAVOK 04/M00 Q1013 NOSIG
  • 201920Z 26015G25KT CAVOK 05/00 Q1012 NOSIG
  • 201850Z 27016KT CAVOK 05/M00 Q1012 NOSIG
  • 201820Z 27017KT CAVOK 05/01 Q1011 NOSIG

TAF TAF EGSH
Valido dal 20 a 21 ore il 21 a 03 ore UTC


201952Z 2021/2103 26015KT 9999 SCT018
ATIS : +44 1603 420 640



MetMap, La meteo Aeronautica in un colpo d'occhio ! - Copyright ORBIFLY Dicembre 2007 - Disclaimer

ORBIFLY MET'MAP TEAM :

Programmazione e sviluppo : Alexandra Zaïnal
Concezione : Baudouin d'Aumeries
Aiuto per la programmazione : Marc-Olivier Méhu
Supporto tecnico e logistico : Manuel Goepfert
Aiuto per la traduzione : Arnaldo La Scala

Contatto : metmap@orbifly.com




FONTI E CREDITI :

   NOAA